Madera Canyon, Arizona
Current Conditions -  °F | °C
As of 8:53 PM on Sunday 23 Nov 2014 (Local Time) from KTUS Reporting Station
Clear Clear  
Wind Chill: 55°   Ceiling: Unl
Heat Index: 55°   Visibility: 10mi
Dew Point: 23°   Wind: 3mph
Humidity: 29%   Direction: 360°N
Pressure: 30.13"   Gusts: NA
Location:  31.8307°N, 111.034°W
Report Text: KTUS 240353Z 36003KT 10SM CLR 13/M05 A3013 RMK AO2 SLP186 T01281050
Loading
Personal Weather Stations






























Interactive Weather Map New forecast layout! Learn more

10-Day Weather Forecast

Advertisements
Track Severe Weather on mobile